createdAt,value
2018-11-26T00:01:54.562Z,29.20
2018-11-26T00:04:28.570Z,24.70
2018-11-26T00:07:03.688Z,27.97
2018-11-26T00:09:37.643Z,30.00
2018-11-26T00:12:11.644Z,27.40
2018-11-26T00:14:45.458Z,27.67
2018-11-26T00:17:19.465Z,28.33
2018-11-26T00:19:53.500Z,27.70
2018-11-26T00:22:27.447Z,28.50
2018-11-26T00:25:01.464Z,27.77
2018-11-26T00:27:35.493Z,28.00
2018-11-26T00:30:09.538Z,29.67
2018-11-26T00:32:43.456Z,28.97
2018-11-26T00:35:17.522Z,29.40
2018-11-26T00:37:51.341Z,30.00
2018-11-26T00:40:25.198Z,27.00
2018-11-26T00:42:59.178Z,27.87
2018-11-26T00:45:33.096Z,27.00
2018-11-26T00:48:07.143Z,32.17
2018-11-26T00:50:41.171Z,28.73
2018-11-26T00:53:15.174Z,30.60
2018-11-26T00:55:49.203Z,30.03
2018-11-26T00:58:23.214Z,29.10
2018-11-26T01:00:57.322Z,29.97
2018-11-26T01:03:31.413Z,30.20
2018-11-26T01:06:05.384Z,30.13
2018-11-26T01:08:39.251Z,30.13
2018-11-26T01:11:13.231Z,29.70
2018-11-26T01:13:47.198Z,29.97
2018-11-26T01:16:21.055Z,31.37
2018-11-26T01:18:55.014Z,30.17
2018-11-26T01:21:28.998Z,29.47
2018-11-26T01:24:04.134Z,31.40
2018-11-26T01:26:37.998Z,31.20
2018-11-26T01:29:12.024Z,27.37
2018-11-26T01:31:46.102Z,33.00
2018-11-26T01:34:20.010Z,32.37
2018-11-26T01:36:53.911Z,30.73
2018-11-26T01:39:27.914Z,32.33
2018-11-26T01:42:01.872Z,28.97
2018-11-26T01:44:35.906Z,33.20
2018-11-26T01:47:09.850Z,31.27
2018-11-26T01:49:44.944Z,26.93
2018-11-26T01:52:18.949Z,27.10
2018-11-26T01:54:52.941Z,28.80
2018-11-26T01:57:26.953Z,24.07
2018-11-26T02:00:02.026Z,25.83
2018-11-26T02:02:36.033Z,22.17
2018-11-26T02:05:10.489Z,22.80
2018-11-26T02:07:44.324Z,22.87
2018-11-26T02:10:18.944Z,21.00
2018-11-26T02:12:52.959Z,22.40
2018-11-26T02:15:32.078Z,24.10
2018-11-26T02:18:06.574Z,22.13
2018-11-26T02:20:40.652Z,22.87
2018-11-26T02:23:14.554Z,21.37
2018-11-26T02:25:48.662Z,23.97
2018-11-26T02:28:22.750Z,22.53
2018-11-26T02:30:56.697Z,23.03
2018-11-26T02:33:30.754Z,25.03
2018-11-26T02:36:05.114Z,24.60
2018-11-26T02:38:39.092Z,23.07
2018-11-26T02:41:13.104Z,21.00
2018-11-26T02:43:47.082Z,20.40
2018-11-26T02:46:21.080Z,17.33
2018-11-26T02:48:55.165Z,20.40
2018-11-26T02:51:29.089Z,17.97
2018-11-26T02:54:03.070Z,19.10
2018-11-26T02:56:37.094Z,17.40
2018-11-26T02:59:11.082Z,18.80
2018-11-26T03:01:45.076Z,20.43
2018-11-26T03:04:19.086Z,19.03
2018-11-26T03:06:52.962Z,20.17
2018-11-26T03:09:26.999Z,18.90
2018-11-26T03:12:00.949Z,19.17
2018-11-26T03:14:34.993Z,18.70
2018-11-26T03:17:08.884Z,18.00
2018-11-26T03:19:42.955Z,18.40
2018-11-26T03:22:17.128Z,19.37
2018-11-26T03:24:51.151Z,20.23
2018-11-26T03:27:25.167Z,18.23
2018-11-26T03:29:59.161Z,18.83
2018-11-26T03:32:33.174Z,17.97
2018-11-26T03:35:07.266Z,16.07
2018-11-26T03:37:41.191Z,19.00
2018-11-26T03:40:15.214Z,18.53
2018-11-26T03:42:49.184Z,18.43
2018-11-26T03:45:23.246Z,19.30
2018-11-26T03:47:57.195Z,18.67
2018-11-26T03:50:31.230Z,18.40
2018-11-26T03:53:05.569Z,16.90
2018-11-26T03:55:39.555Z,18.27
2018-11-26T03:58:13.594Z,20.53
2018-11-26T04:00:52.109Z,18.90
2018-11-26T04:03:25.927Z,20.03
2018-11-26T04:05:59.929Z,17.50
2018-11-26T04:08:33.986Z,19.70
2018-11-26T04:11:07.858Z,20.00
2018-11-26T04:13:41.914Z,20.40
2018-11-26T04:16:15.894Z,20.10
2018-11-26T04:18:49.888Z,20.53
2018-11-26T04:21:23.854Z,20.33
2018-11-26T04:23:57.762Z,21.70
2018-11-26T04:26:31.733Z,20.57
2018-11-26T04:29:05.692Z,20.90
2018-11-26T04:31:39.625Z,21.77
2018-11-26T04:34:13.557Z,23.90
2018-11-26T04:36:47.496Z,22.93
2018-11-26T04:39:21.343Z,24.77
2018-11-26T04:41:55.217Z,23.63
2018-11-26T04:44:29.213Z,20.90
2018-11-26T04:47:03.077Z,20.30
2018-11-26T04:49:37.033Z,19.80
2018-11-26T04:52:11.116Z,19.00
2018-11-26T04:54:44.938Z,19.50
2018-11-26T04:57:18.918Z,19.03
2018-11-26T04:59:52.897Z,21.53
2018-11-26T05:02:26.722Z,19.43
2018-11-26T05:05:00.701Z,19.77
2018-11-26T05:07:34.660Z,17.67
2018-11-26T05:10:10.092Z,17.60
2018-11-26T05:12:44.030Z,17.30
2018-11-26T05:15:18.031Z,18.17
2018-11-26T05:17:52.067Z,16.50
2018-11-26T05:20:26.047Z,16.30
2018-11-26T05:22:59.952Z,17.63
2018-11-26T05:25:34.045Z,17.73
2018-11-26T05:28:08.063Z,16.87
2018-11-26T05:30:42.062Z,16.83
2018-11-26T05:33:16.011Z,18.07
2018-11-26T05:35:50.050Z,18.53
2018-11-26T05:38:23.973Z,16.30
2018-11-26T05:40:57.850Z,19.87
2018-11-26T05:43:31.734Z,16.60
2018-11-26T05:46:05.622Z,18.07
2018-11-26T05:48:39.730Z,17.00
2018-11-26T05:51:13.779Z,16.97
2018-11-26T05:53:47.628Z,17.20
2018-11-26T05:56:21.682Z,15.93
2018-11-26T05:58:55.664Z,16.20
2018-11-26T06:01:29.551Z,18.27
2018-11-26T06:04:03.566Z,15.90
2018-11-26T06:06:37.540Z,15.07
2018-11-26T06:09:11.627Z,16.10
2018-11-26T06:11:45.639Z,16.00
2018-11-26T06:14:19.701Z,16.63
2018-11-26T06:16:53.933Z,16.67
2018-11-26T06:19:27.642Z,14.00
2018-11-26T06:22:01.591Z,14.43
2018-11-26T06:24:35.697Z,15.33
2018-11-26T06:27:09.699Z,14.30
2018-11-26T06:29:43.554Z,13.93
2018-11-26T06:32:17.787Z,13.37
2018-11-26T06:34:52.226Z,13.07
2018-11-26T06:37:26.799Z,13.67
2018-11-26T06:40:00.880Z,12.13
2018-11-26T06:42:35.117Z,10.17
2018-11-26T06:45:11.318Z,15.07
2018-11-26T06:47:45.617Z,11.30
2018-11-26T06:50:20.093Z,13.17
2018-11-26T06:55:57.181Z,13.20
2018-11-26T06:58:31.436Z,13.73
2018-11-26T07:01:06.272Z,11.53
2018-11-26T07:03:40.592Z,15.20
2018-11-26T07:06:15.411Z,13.63
2018-11-26T07:08:49.687Z,14.10
2018-11-26T07:11:24.084Z,14.73
2018-11-26T07:13:58.184Z,14.20
2018-11-26T07:16:33.298Z,13.50
2018-11-26T07:19:08.007Z,13.80
2018-11-26T07:21:42.925Z,16.13
2018-11-26T07:24:17.184Z,13.83
2018-11-26T07:26:52.548Z,14.77
2018-11-26T07:29:26.768Z,18.47
2018-11-26T07:32:01.678Z,17.93
2018-11-26T07:34:40.315Z,16.40
2018-11-26T07:37:14.375Z,16.80
2018-11-26T07:39:49.164Z,17.73
2018-11-26T07:42:23.455Z,17.10
2018-11-26T07:44:57.720Z,16.50
2018-11-26T07:47:32.534Z,15.63
2018-11-26T07:50:14.893Z,21.10
2018-11-26T07:52:49.201Z,19.70
2018-11-26T07:55:24.052Z,20.83
2018-11-26T07:57:58.579Z,22.63
2018-11-26T08:00:33.424Z,17.40
2018-11-26T08:03:15.877Z,19.53
2018-11-26T08:05:50.711Z,14.70
2018-11-26T08:08:26.315Z,18.20
2018-11-26T08:11:02.579Z,16.60
2018-11-26T08:13:37.876Z,20.30
2018-11-26T08:16:12.907Z,16.93
2018-11-26T08:18:48.036Z,19.43
2018-11-26T08:21:22.454Z,17.80
2018-11-26T08:23:57.966Z,17.60
2018-11-26T08:26:32.581Z,13.53
2018-11-26T08:29:06.933Z,16.30
2018-11-26T08:31:43.811Z,15.97
2018-11-26T08:34:18.573Z,14.90
2018-11-26T08:36:58.935Z,13.53
2018-11-26T08:39:37.584Z,12.60
2018-11-26T08:42:17.117Z,13.40
2018-11-26T08:44:56.769Z,13.23
2018-11-26T08:47:39.341Z,12.57
2018-11-26T08:50:16.518Z,13.97
2018-11-26T08:52:51.702Z,11.73
2018-11-26T08:55:26.027Z,14.70
2018-11-26T09:00:44.210Z,12.47
2018-11-26T09:03:23.463Z,15.50
2018-11-26T09:06:01.230Z,15.20
2018-11-26T09:08:40.777Z,13.37
2018-11-26T09:11:21.737Z,13.40
2018-11-26T09:13:55.931Z,13.17
2018-11-26T09:16:30.590Z,15.73
2018-11-26T09:19:05.318Z,15.50
2018-11-26T09:21:40.454Z,15.87
2018-11-26T09:24:15.193Z,14.20
2018-11-26T09:26:50.351Z,16.33
2018-11-26T09:29:25.011Z,14.30
2018-11-26T09:31:59.570Z,16.40
2018-11-26T09:34:36.483Z,17.80
2018-11-26T09:37:12.305Z,14.67
2018-11-26T09:39:47.044Z,15.37
2018-11-26T09:42:21.537Z,16.40
2018-11-26T09:44:58.555Z,15.60
2018-11-26T09:47:32.709Z,15.50
2018-11-26T09:50:11.660Z,17.57
2018-11-26T09:52:46.050Z,14.60
2018-11-26T09:55:20.399Z,14.70
2018-11-26T09:57:55.187Z,13.80
2018-11-26T10:00:29.482Z,14.13
2018-11-26T10:03:03.915Z,13.93
2018-11-26T10:05:38.093Z,12.30
2018-11-26T10:08:13.324Z,13.10
2018-11-26T10:10:47.571Z,13.73
2018-11-26T10:13:22.427Z,12.87
2018-11-26T10:15:57.008Z,13.17
2018-11-26T10:18:31.375Z,12.57
2018-11-26T10:21:05.556Z,9.93
2018-11-26T10:23:40.364Z,13.00
2018-11-26T10:26:15.075Z,11.87
2018-11-26T10:28:49.383Z,11.93
2018-11-26T10:31:24.568Z,11.47
2018-11-26T10:33:58.947Z,10.83
2018-11-26T10:36:33.733Z,12.00
2018-11-26T10:39:09.454Z,10.07
2018-11-26T10:41:43.884Z,10.40
2018-11-26T10:44:18.263Z,10.70
2018-11-26T10:46:54.968Z,9.10
2018-11-26T10:49:29.978Z,8.03
2018-11-26T10:52:05.521Z,8.50
2018-11-26T10:54:40.733Z,7.10
2018-11-26T10:57:16.192Z,7.17
2018-11-26T10:59:51.771Z,5.70
2018-11-26T11:02:31.949Z,6.50
2018-11-26T11:05:08.351Z,7.47
2018-11-26T11:07:42.744Z,6.33
2018-11-26T11:10:27.529Z,6.43
2018-11-26T11:15:48.806Z,6.90
2018-11-26T11:18:23.937Z,5.30
2018-11-26T11:21:08.013Z,5.00
2018-11-26T11:23:44.699Z,6.23
2018-11-26T11:26:25.099Z,6.43
2018-11-26T11:29:09.577Z,5.13
2018-11-26T12:10:36.759Z,5.43
2018-11-26T12:13:12.379Z,6.00
2018-11-26T12:15:48.932Z,5.17
2018-11-26T12:18:23.291Z,6.20
2018-11-26T12:20:58.900Z,7.40
2018-11-26T12:23:33.398Z,6.33
2018-11-26T12:26:08.821Z,7.10
2018-11-26T12:28:43.066Z,5.47
2018-11-26T12:31:17.571Z,6.47
2018-11-26T12:33:52.550Z,6.90
2018-11-26T12:36:26.979Z,5.43
2018-11-26T12:39:01.150Z,6.43
2018-11-26T12:41:35.340Z,6.20
2018-11-26T12:44:09.543Z,6.00
2018-11-26T12:46:43.666Z,6.77
2018-11-26T12:49:17.917Z,5.90
2018-11-26T12:51:52.100Z,10.07
2018-11-26T12:54:26.700Z,6.40
2018-11-26T12:57:00.903Z,6.70
2018-11-26T12:59:35.636Z,6.10
2018-11-26T13:02:09.975Z,4.77
2018-11-26T13:04:44.279Z,6.73
2018-11-26T13:07:19.548Z,14.27
2018-11-26T13:09:54.752Z,6.73
2018-11-26T13:12:28.880Z,4.73
2018-11-26T13:15:03.335Z,5.90
2018-11-26T13:17:38.062Z,4.97
2018-11-26T13:20:13.241Z,5.40
2018-11-26T13:22:48.014Z,4.17
2018-11-26T13:25:24.416Z,5.13
2018-11-26T13:27:59.659Z,5.17
2018-11-26T13:30:36.006Z,5.10
2018-11-26T13:33:10.999Z,4.80
2018-11-26T13:35:45.929Z,4.57
2018-11-26T13:38:19.946Z,5.27
2018-11-26T13:40:54.023Z,5.70
2018-11-26T13:43:29.148Z,4.90
2018-11-26T13:46:04.199Z,6.20
2018-11-26T13:48:39.107Z,6.40
2018-11-26T13:51:13.315Z,7.53
2018-11-26T13:53:47.949Z,7.97
2018-11-26T13:56:22.133Z,9.80
2018-11-26T13:58:57.029Z,5.57
2018-11-26T14:01:31.640Z,5.27
2018-11-26T14:04:07.092Z,6.80
2018-11-26T14:06:47.263Z,5.57
2018-11-26T14:09:26.946Z,7.10
2018-11-26T14:12:05.670Z,5.80
2018-11-26T14:14:41.650Z,9.10
2018-11-26T14:17:17.302Z,9.80
2018-11-26T14:19:55.382Z,7.30
2018-11-26T14:22:31.670Z,6.00
2018-11-26T14:25:09.684Z,7.13
2018-11-26T14:27:45.948Z,5.83
2018-11-26T14:30:22.041Z,6.30
2018-11-26T14:32:57.290Z,6.10
2018-11-26T14:35:32.513Z,7.70
2018-11-26T14:38:08.829Z,5.50
2018-11-26T14:40:50.423Z,6.20
2018-11-26T14:43:28.004Z,7.80
2018-11-26T14:46:04.839Z,8.20
2018-11-26T14:48:41.692Z,6.07
2018-11-26T14:51:22.785Z,7.10
2018-11-26T14:54:00.901Z,8.40
2018-11-26T14:56:37.473Z,6.43
2018-11-26T14:59:14.064Z,6.80
2018-11-26T15:01:55.021Z,7.10
2018-11-26T15:04:30.407Z,7.03
2018-11-26T15:07:07.088Z,7.13
2018-11-26T15:09:44.794Z,7.17
2018-11-26T15:12:24.243Z,8.30
2018-11-26T15:15:00.312Z,9.20
2018-11-26T15:19:41.348Z,9.03
2018-11-26T15:22:19.892Z,8.63
2018-11-26T15:24:55.231Z,7.97
2018-11-26T15:27:31.250Z,7.37
2018-11-26T15:30:10.177Z,9.00
2018-11-26T15:32:45.328Z,9.27
2018-11-26T15:35:21.382Z,8.77
2018-11-26T15:37:59.569Z,9.87
2018-11-26T15:40:36.247Z,9.20
2018-11-26T15:43:12.809Z,9.80
2018-11-26T15:45:49.740Z,10.67
2018-11-26T15:48:26.063Z,10.37
2018-11-26T15:51:02.747Z,10.80
2018-11-26T15:53:37.903Z,10.90
2018-11-26T15:56:13.031Z,10.93
2018-11-26T15:58:48.594Z,12.17
2018-11-26T16:01:25.293Z,12.00
2018-11-26T16:04:00.734Z,11.43
2018-11-26T16:06:35.854Z,11.50
2018-11-26T16:09:10.998Z,11.13
2018-11-26T16:11:45.971Z,10.90
2018-11-26T16:14:23.065Z,13.37
2018-11-26T16:16:58.724Z,12.67
2018-11-26T16:19:34.691Z,12.93
2018-11-26T16:22:10.458Z,12.27
2018-11-26T16:24:45.785Z,13.17
2018-11-26T16:27:21.670Z,8.67
2018-11-26T16:29:57.839Z,11.33
2018-11-26T16:35:36.593Z,12.27
2018-11-26T16:38:13.593Z,9.50
2018-11-26T16:40:49.151Z,12.00
2018-11-26T16:43:25.413Z,10.10
2018-11-26T16:46:01.185Z,10.97
2018-11-26T16:48:37.100Z,11.40
2018-11-26T16:51:12.412Z,9.93
2018-11-26T16:53:52.777Z,11.53
2018-11-26T16:56:27.926Z,9.50
2018-11-26T16:59:03.812Z,11.07
2018-11-26T17:01:38.942Z,9.50
2018-11-26T17:04:14.183Z,10.50
2018-11-26T17:06:52.400Z,11.60
2018-11-26T17:09:30.401Z,11.43
2018-11-26T17:12:08.429Z,10.53
2018-11-26T17:14:44.016Z,10.80
2018-11-26T17:17:19.338Z,12.13
2018-11-26T17:19:56.150Z,10.23
2018-11-26T17:22:33.218Z,10.90
2018-11-26T17:25:10.239Z,11.70
2018-11-26T17:27:45.694Z,11.80
2018-11-26T17:30:26.170Z,10.77
2018-11-26T17:33:05.720Z,11.80
2018-11-26T17:35:42.303Z,9.77
2018-11-26T17:38:17.515Z,10.87
2018-11-26T17:40:53.413Z,10.90
2018-11-26T17:43:29.586Z,10.37
2018-11-26T17:46:04.932Z,11.87
2018-11-26T17:48:39.845Z,11.93
2018-11-26T17:51:14.518Z,14.03
2018-11-26T17:53:52.022Z,12.27
2018-11-26T17:56:26.871Z,12.40
2018-11-26T17:59:03.444Z,11.90
2018-11-26T18:01:42.094Z,12.87
2018-11-26T18:04:17.837Z,13.50
2018-11-26T18:06:52.679Z,13.47
2018-11-26T18:09:28.659Z,13.90
2018-11-26T18:12:04.611Z,14.27
2018-11-26T18:14:40.631Z,13.70
2018-11-26T18:17:15.475Z,13.87
2018-11-26T18:19:51.691Z,13.63
2018-11-26T18:22:27.617Z,14.00
2018-11-26T18:25:03.068Z,12.60
2018-11-26T18:27:38.503Z,12.47
2018-11-26T18:30:18.892Z,13.33
2018-11-26T18:32:55.038Z,11.50
2018-11-26T18:35:31.323Z,13.17
2018-11-26T18:38:09.196Z,11.93
2018-11-26T18:40:46.344Z,12.60
2018-11-26T18:43:21.489Z,13.20
2018-11-26T18:45:57.348Z,12.07
2018-11-26T18:48:32.660Z,11.70
2018-11-26T18:51:08.160Z,13.40
2018-11-26T18:53:47.197Z,16.73
2018-11-26T18:56:22.961Z,12.13
2018-11-26T18:58:59.656Z,12.13
2018-11-26T19:01:36.737Z,13.00
2018-11-26T19:04:11.752Z,12.30
2018-11-26T19:06:46.661Z,11.43
2018-11-26T19:09:22.032Z,12.30
2018-11-26T19:11:57.873Z,12.07
2018-11-26T19:14:34.867Z,13.47
2018-11-26T19:17:11.083Z,12.43
2018-11-26T19:19:55.541Z,14.83
2018-11-26T19:22:32.468Z,15.00
2018-11-26T19:25:09.238Z,16.23
2018-11-26T19:27:43.836Z,16.13
2018-11-26T19:30:23.002Z,15.70
2018-11-26T19:32:55.053Z,14.10
2018-11-26T19:35:29.782Z,16.20
2018-11-26T19:38:06.165Z,14.40
2018-11-26T19:40:42.177Z,14.97
2018-11-26T19:43:17.965Z,15.50
2018-11-26T19:45:53.923Z,15.77
2018-11-26T19:48:31.404Z,14.87
2018-11-26T19:51:08.199Z,14.53
2018-11-26T19:53:44.780Z,16.83
2018-11-26T19:56:19.955Z,15.03
2018-11-26T19:58:54.739Z,15.10
2018-11-26T20:01:31.408Z,15.70
2018-11-26T20:04:13.109Z,15.30
2018-11-26T20:06:51.053Z,12.73
2018-11-26T20:09:26.479Z,14.60
2018-11-26T20:12:02.438Z,15.67
2018-11-26T20:14:38.685Z,14.93
2018-11-26T20:17:15.607Z,13.17
2018-11-26T20:19:51.472Z,15.40
2018-11-26T20:22:27.542Z,16.43
2018-11-26T20:25:03.432Z,13.77
2018-11-26T20:27:45.443Z,16.73
2018-11-26T20:30:24.147Z,15.77
2018-11-26T20:33:00.633Z,15.27
2018-11-26T20:35:37.620Z,15.23
2018-11-26T20:38:14.120Z,14.27
2018-11-26T20:40:49.365Z,14.00
2018-11-26T20:43:24.406Z,14.77
2018-11-26T20:46:00.483Z,15.70
2018-11-26T20:48:35.355Z,15.90
2018-11-26T20:51:11.755Z,14.50
2018-11-26T20:53:46.929Z,14.77
2018-11-26T20:56:30.167Z,15.40
2018-11-26T20:59:05.216Z,15.13
2018-11-26T21:01:40.874Z,14.63
2018-11-26T21:04:15.824Z,17.77
2018-11-26T21:06:52.395Z,16.40
2018-11-26T21:09:28.267Z,15.00
2018-11-26T21:12:03.187Z,13.47
2018-11-26T21:14:39.563Z,14.80
2018-11-26T21:17:14.221Z,17.40
2018-11-26T21:19:49.922Z,16.87
2018-11-26T21:22:25.652Z,18.00
2018-11-26T21:25:02.141Z,17.47
2018-11-26T21:27:36.959Z,19.27
2018-11-26T21:30:14.399Z,17.03
2018-11-26T21:32:49.958Z,17.70
2018-11-26T21:35:25.868Z,16.13
2018-11-26T21:38:00.723Z,17.97
2018-11-26T21:40:36.290Z,19.33
2018-11-26T21:43:11.745Z,18.30
2018-11-26T21:45:51.290Z,18.27
2018-11-26T21:48:26.214Z,20.47
2018-11-26T21:51:00.970Z,17.87
2018-11-26T21:53:35.880Z,18.80
2018-11-26T21:56:13.319Z,17.97
2018-11-26T21:58:48.211Z,15.67
2018-11-26T22:01:23.908Z,15.07
2018-11-26T22:03:59.687Z,18.40
2018-11-26T22:06:34.715Z,16.33
2018-11-26T22:09:11.464Z,17.13
2018-11-26T22:11:48.393Z,17.13
2018-11-26T22:14:22.898Z,16.90
2018-11-26T22:16:57.638Z,15.97
2018-11-26T22:19:32.408Z,17.07
2018-11-26T22:22:08.682Z,17.97
2018-11-26T22:24:44.354Z,20.80
2018-11-26T22:27:19.359Z,18.00
2018-11-26T22:29:54.833Z,17.07
2018-11-26T22:32:31.500Z,17.90
2018-11-26T22:35:08.513Z,17.43
2018-11-26T22:37:44.582Z,17.70
2018-11-26T22:40:24.005Z,15.93
2018-11-26T22:43:01.326Z,17.13
2018-11-26T22:45:36.011Z,17.40
2018-11-26T22:48:14.387Z,17.17
2018-11-26T22:50:50.074Z,15.30
2018-11-26T22:53:25.088Z,16.50
2018-11-26T22:56:00.134Z,17.00
2018-11-26T22:58:34.685Z,17.30
2018-11-26T23:01:10.413Z,15.37
2018-11-26T23:03:45.172Z,16.47
2018-11-26T23:06:19.677Z,17.13
2018-11-26T23:08:55.457Z,18.40
2018-11-26T23:11:30.418Z,16.53
2018-11-26T23:14:05.052Z,16.67
2018-11-26T23:16:39.778Z,14.90
2018-11-26T23:19:13.892Z,17.33
2018-11-26T23:21:47.902Z,15.43
2018-11-26T23:24:22.206Z,16.80
2018-11-26T23:26:55.649Z,16.87
2018-11-26T23:29:29.582Z,16.83
2018-11-26T23:32:05.262Z,15.03
2018-11-26T23:34:39.276Z,15.67
2018-11-26T23:37:13.288Z,15.60
2018-11-26T23:39:47.137Z,16.20
2018-11-26T23:42:21.193Z,16.10
2018-11-26T23:44:55.404Z,15.40
2018-11-26T23:47:29.606Z,13.83
2018-11-26T23:50:03.943Z,16.53
2018-11-26T23:52:38.920Z,15.63
2018-11-26T23:55:14.537Z,17.87
2018-11-26T23:57:48.647Z,17.30
